createdAt,value
2018-08-17T00:01:28.264Z,2.00
2018-08-17T00:04:04.249Z,1.90
2018-08-17T00:06:39.855Z,2.00
2018-08-17T00:09:15.435Z,2.10
2018-08-17T00:11:51.043Z,2.00
2018-08-17T00:14:27.361Z,1.80
2018-08-17T00:17:03.011Z,2.00
2018-08-17T00:19:38.577Z,1.93
2018-08-17T00:22:14.172Z,2.00
2018-08-17T00:24:49.789Z,1.90
2018-08-17T00:27:25.405Z,2.00
2018-08-17T00:30:01.009Z,2.40
2018-08-17T00:32:36.676Z,1.93
2018-08-17T00:35:12.153Z,2.00
2018-08-17T00:37:47.892Z,2.20
2018-08-17T00:40:23.548Z,2.10
2018-08-17T00:42:59.181Z,2.10
2018-08-17T00:45:34.796Z,2.27
2018-08-17T00:48:10.391Z,2.00
2018-08-17T00:50:46.145Z,2.30
2018-08-17T00:53:21.789Z,2.40
2018-08-17T00:55:57.386Z,2.23
2018-08-17T00:58:33.157Z,2.20
2018-08-17T01:01:08.948Z,2.33
2018-08-17T01:03:44.565Z,2.10
2018-08-17T01:06:20.164Z,1.93
2018-08-17T01:08:55.786Z,2.07
2018-08-17T01:11:31.433Z,1.80
2018-08-17T01:14:07.182Z,2.03
2018-08-17T01:16:42.869Z,1.90
2018-08-17T01:19:18.612Z,1.90
2018-08-17T01:21:54.304Z,1.90
2018-08-17T01:24:30.457Z,1.93
2018-08-17T01:27:06.092Z,2.00
2018-08-17T01:29:41.673Z,2.20
2018-08-17T01:32:17.301Z,2.10
2018-08-17T01:34:52.848Z,2.30
2018-08-17T01:37:28.518Z,2.30
2018-08-17T01:40:04.092Z,2.23
2018-08-17T01:42:39.789Z,2.13
2018-08-17T01:45:15.748Z,2.20
2018-08-17T01:47:51.449Z,2.10
2018-08-17T01:50:27.037Z,2.27
2018-08-17T01:53:02.653Z,2.23
2018-08-17T01:55:38.333Z,2.07
2018-08-17T01:58:13.882Z,2.20
2018-08-17T02:00:49.445Z,2.30
2018-08-17T02:03:24.896Z,2.33
2018-08-17T02:06:00.460Z,2.40
2018-08-17T02:08:36.032Z,2.10
2018-08-17T02:11:12.563Z,2.17
2018-08-17T02:13:48.335Z,2.27
2018-08-17T02:16:23.992Z,2.17
2018-08-17T02:18:59.591Z,2.17
2018-08-17T02:21:35.168Z,2.30
2018-08-17T02:24:10.771Z,2.47
2018-08-17T02:26:46.419Z,2.17
2018-08-17T02:29:22.030Z,2.37
2018-08-17T02:31:57.669Z,2.30
2018-08-17T02:34:33.420Z,2.40
2018-08-17T02:37:09.699Z,2.37
2018-08-17T02:39:45.521Z,2.23
2018-08-17T02:42:21.854Z,2.30
2018-08-17T02:44:57.618Z,2.23
2018-08-17T02:47:33.377Z,2.33
2018-08-17T02:50:09.025Z,2.23
2018-08-17T02:52:44.677Z,2.30
2018-08-17T02:55:20.284Z,2.37
2018-08-17T02:57:56.136Z,2.33
2018-08-17T03:00:31.772Z,2.30
2018-08-17T03:03:07.654Z,2.60
2018-08-17T03:05:43.269Z,2.50
2018-08-17T03:08:19.237Z,2.53
2018-08-17T03:10:54.969Z,2.47
2018-08-17T03:13:30.618Z,2.37
2018-08-17T03:16:06.439Z,2.37
2018-08-17T03:18:42.048Z,2.63
2018-08-17T03:21:17.704Z,2.23
2018-08-17T03:23:53.408Z,2.17
2018-08-17T03:26:29.117Z,2.37
2018-08-17T03:29:05.184Z,2.53
2018-08-17T03:31:40.893Z,2.27
2018-08-17T03:34:16.421Z,2.43
2018-08-17T03:36:52.064Z,2.73
2018-08-17T03:39:27.669Z,2.30
2018-08-17T03:42:03.341Z,2.50
2018-08-17T03:44:38.941Z,2.53
2018-08-17T03:47:14.505Z,2.50
2018-08-17T03:49:56.753Z,2.87
2018-08-17T03:52:32.437Z,2.10
2018-08-17T03:55:08.092Z,2.60
2018-08-17T03:57:43.749Z,2.67
2018-08-17T04:00:19.349Z,2.20
2018-08-17T04:02:55.033Z,2.30
2018-08-17T04:05:30.840Z,2.27
2018-08-17T04:08:06.505Z,2.47
2018-08-17T04:10:42.079Z,2.50
2018-08-17T04:13:17.779Z,2.30
2018-08-17T04:15:53.456Z,2.33
2018-08-17T04:18:29.073Z,2.40
2018-08-17T04:21:04.689Z,2.13
2018-08-17T04:23:40.520Z,2.60
2018-08-17T04:26:16.373Z,2.40
2018-08-17T04:28:52.394Z,2.30
2018-08-17T04:31:28.101Z,2.60
2018-08-17T04:34:03.693Z,2.43
2018-08-17T04:36:39.296Z,2.60
2018-08-17T04:39:14.832Z,2.50
2018-08-17T04:41:50.489Z,2.40
2018-08-17T04:44:26.133Z,2.40
2018-08-17T04:47:01.818Z,2.30
2018-08-17T04:49:37.405Z,2.70
2018-08-17T04:52:12.996Z,2.30
2018-08-17T04:54:48.625Z,2.60
2018-08-17T04:57:24.213Z,2.60
2018-08-17T04:59:59.836Z,2.57
2018-08-17T05:02:36.961Z,2.27
2018-08-17T05:05:12.464Z,2.37
2018-08-17T05:07:48.129Z,2.70
2018-08-17T05:10:23.721Z,2.60
2018-08-17T05:12:59.444Z,2.33
2018-08-17T05:15:35.156Z,2.47
2018-08-17T05:18:10.788Z,2.30
2018-08-17T05:20:46.366Z,2.37
2018-08-17T05:23:21.990Z,2.33
2018-08-17T05:25:57.800Z,2.70
2018-08-17T05:28:33.395Z,2.40
2018-08-17T05:31:09.145Z,2.23
2018-08-17T05:33:44.746Z,2.60
2018-08-17T05:36:20.309Z,2.90
2018-08-17T05:38:55.860Z,2.90
2018-08-17T05:41:31.480Z,2.93
2018-08-17T05:44:07.101Z,2.70
2018-08-17T05:46:42.744Z,2.83
2018-08-17T05:49:18.197Z,2.83
2018-08-17T05:51:53.720Z,2.97
2018-08-17T05:54:29.294Z,3.03
2018-08-17T05:57:04.898Z,3.27
2018-08-17T05:59:42.067Z,3.07
2018-08-17T06:02:17.986Z,3.00
2018-08-17T06:04:53.648Z,2.70
2018-08-17T06:07:29.283Z,3.20
2018-08-17T06:10:06.113Z,2.90
2018-08-17T06:12:41.716Z,2.97
2018-08-17T06:15:17.364Z,2.80
2018-08-17T06:17:52.946Z,2.73
2018-08-17T06:20:28.645Z,2.73
2018-08-17T06:23:04.316Z,2.60
2018-08-17T06:25:39.982Z,3.07
2018-08-17T06:28:15.668Z,3.10
2018-08-17T06:30:51.166Z,2.70
2018-08-17T06:33:26.776Z,2.77
2018-08-17T06:36:02.477Z,2.93
2018-08-17T06:38:38.289Z,3.00
2018-08-17T06:41:13.945Z,2.87
2018-08-17T06:43:49.585Z,2.30
2018-08-17T06:46:25.374Z,2.97
2018-08-17T06:49:00.998Z,2.83
2018-08-17T06:51:36.613Z,2.87
2018-08-17T06:54:12.194Z,2.80
2018-08-17T06:56:47.825Z,2.67
2018-08-17T06:59:23.439Z,3.07
2018-08-17T07:01:59.082Z,2.63
2018-08-17T07:04:34.989Z,2.97
2018-08-17T07:07:10.500Z,3.10
2018-08-17T07:09:46.164Z,2.87
2018-08-17T07:12:21.773Z,2.73
2018-08-17T07:14:57.653Z,2.77
2018-08-17T07:17:33.312Z,2.40
2018-08-17T07:20:10.791Z,2.27
2018-08-17T07:22:52.949Z,2.07
2018-08-17T07:25:28.593Z,2.50
2018-08-17T07:28:04.202Z,2.07
2018-08-17T07:30:40.086Z,2.13
2018-08-17T07:33:15.843Z,2.43
2018-08-17T07:35:51.524Z,2.00
2018-08-17T07:38:27.218Z,2.50
2018-08-17T07:41:02.848Z,2.33
2018-08-17T07:43:38.469Z,2.40
2018-08-17T07:46:14.089Z,3.03
2018-08-17T07:48:49.755Z,2.43
2018-08-17T07:51:25.317Z,2.60
2018-08-17T07:54:01.035Z,2.40
2018-08-17T07:56:36.690Z,2.43
2018-08-17T07:59:12.353Z,2.50
2018-08-17T08:01:48.126Z,2.33
2018-08-17T08:04:23.722Z,2.60
2018-08-17T08:06:59.317Z,2.53
2018-08-17T08:09:35.040Z,2.43
2018-08-17T08:12:10.648Z,2.70
2018-08-17T08:14:46.294Z,3.00
2018-08-17T08:17:21.899Z,2.60
2018-08-17T08:20:14.474Z,2.50
2018-08-17T08:23:00.462Z,2.90
2018-08-17T08:25:36.271Z,2.90
2018-08-17T08:28:11.925Z,2.90
2018-08-17T08:30:47.888Z,2.10
2018-08-17T08:33:23.400Z,2.47
2018-08-17T08:35:59.039Z,2.37
2018-08-17T08:38:34.812Z,2.50
2018-08-17T08:41:10.421Z,2.70
2018-08-17T08:43:45.968Z,2.30
2018-08-17T08:46:21.583Z,2.60
2018-08-17T08:48:57.217Z,2.60
2018-08-17T08:51:32.801Z,2.70
2018-08-17T08:54:09.126Z,2.87
2018-08-17T08:56:44.750Z,3.03
2018-08-17T08:59:20.400Z,3.23
2018-08-17T09:01:56.053Z,3.17
2018-08-17T09:04:32.361Z,2.83
2018-08-17T09:07:08.570Z,3.25
2018-08-17T09:09:44.896Z,2.92
2018-08-17T09:12:21.284Z,2.85
2018-08-17T09:14:57.426Z,2.90
2018-08-17T09:17:33.572Z,2.77
2018-08-17T09:20:13.809Z,2.67
2018-08-17T09:22:50.043Z,2.55
2018-08-17T09:25:26.239Z,3.12
2018-08-17T09:28:02.518Z,2.80
2018-08-17T09:30:38.826Z,2.40
2018-08-17T09:33:14.994Z,2.50
2018-08-17T09:35:51.219Z,2.50
2018-08-17T09:38:27.414Z,2.52
2018-08-17T09:41:03.635Z,2.60
2018-08-17T09:43:39.966Z,2.77
2018-08-17T09:46:16.171Z,2.83
2018-08-17T09:48:52.320Z,2.77
2018-08-17T09:51:28.720Z,2.60
2018-08-17T09:54:06.243Z,2.58
2018-08-17T09:56:42.298Z,2.80
2018-08-17T09:59:18.478Z,2.90
2018-08-17T10:01:59.952Z,2.80
2018-08-17T10:04:40.928Z,2.60
2018-08-17T10:07:22.430Z,2.80
2018-08-17T10:10:03.882Z,2.58
2018-08-17T10:12:40.511Z,2.58
2018-08-17T10:15:17.060Z,2.60
2018-08-17T10:17:53.469Z,2.65
2018-08-17T10:20:30.078Z,2.87
2018-08-17T10:23:38.726Z,2.85
2018-08-17T10:26:15.061Z,2.25
2018-08-17T10:28:51.153Z,2.60
2018-08-17T10:31:27.361Z,2.55
2018-08-17T10:34:03.575Z,2.47
2018-08-17T10:36:39.789Z,2.60
2018-08-17T10:39:16.631Z,2.30
2018-08-17T10:41:52.871Z,2.58
2018-08-17T10:44:29.179Z,2.25
2018-08-17T10:47:05.325Z,2.60
2018-08-17T10:49:41.460Z,2.60
2018-08-17T10:52:17.597Z,2.52
2018-08-17T10:54:53.773Z,2.62
2018-08-17T10:57:30.117Z,2.55
2018-08-17T11:00:06.723Z,2.40
2018-08-17T11:02:43.575Z,2.62
2018-08-17T11:05:19.842Z,2.55
2018-08-17T11:07:56.165Z,2.40
2018-08-17T11:10:29.367Z,2.40
2018-08-17T11:13:05.642Z,2.70
2018-08-17T11:15:41.842Z,2.75
2018-08-17T11:18:18.122Z,2.77
2018-08-17T11:20:49.041Z,3.00
2018-08-17T11:23:19.997Z,2.70
2018-08-17T11:25:50.915Z,2.30
2018-08-17T11:28:21.854Z,2.70
2018-08-17T11:30:52.792Z,2.60
2018-08-17T11:33:28.110Z,2.45
2018-08-17T11:35:59.311Z,2.77
2018-08-17T11:38:36.719Z,2.80
2018-08-17T11:41:11.541Z,2.72
2018-08-17T11:43:42.482Z,3.00
2018-08-17T11:46:13.623Z,3.05
2018-08-17T11:48:44.543Z,3.10
2018-08-17T11:51:15.666Z,2.90
2018-08-17T11:53:48.022Z,2.95
2018-08-17T11:56:19.616Z,2.95
2018-08-17T11:58:50.938Z,3.15
2018-08-17T12:01:27.072Z,3.67
2018-08-17T12:03:59.126Z,3.08
2018-08-17T12:06:31.377Z,3.15
2018-08-17T12:09:02.390Z,3.10
2018-08-17T12:11:33.308Z,3.40
2018-08-17T12:14:04.294Z,2.83
2018-08-17T12:16:35.266Z,3.05
2018-08-17T12:22:16.961Z,2.85
2018-08-17T12:24:47.896Z,3.10
2018-08-17T12:27:18.880Z,3.50
2018-08-17T12:29:49.765Z,3.33
2018-08-17T12:32:22.059Z,3.30
2018-08-17T12:34:53.081Z,3.25
2018-08-17T12:37:23.924Z,3.22
2018-08-17T12:39:54.802Z,3.83
2018-08-17T12:42:25.635Z,3.77
2018-08-17T12:45:02.821Z,3.87
2018-08-17T12:47:33.660Z,3.35
2018-08-17T12:50:04.531Z,3.00
2018-08-17T12:52:35.445Z,3.67
2018-08-17T12:55:06.569Z,3.27
2018-08-17T12:57:41.939Z,2.72
2018-08-17T13:00:13.483Z,2.80
2018-08-17T13:02:44.321Z,3.00
2018-08-17T13:05:15.420Z,3.40
2018-08-17T13:07:46.495Z,3.50
2018-08-17T13:10:17.369Z,2.83
2018-08-17T13:12:54.993Z,2.95
2018-08-17T13:15:26.368Z,3.08
2018-08-17T13:17:57.296Z,3.20
2018-08-17T13:20:28.420Z,3.40
2018-08-17T13:22:59.278Z,3.08
2018-08-17T13:25:30.314Z,3.10
2018-08-17T13:28:01.149Z,3.65
2018-08-17T13:30:31.992Z,3.05
2018-08-17T13:33:02.830Z,3.17
2018-08-17T13:35:33.686Z,3.30
2018-08-17T13:38:04.564Z,3.02
2018-08-17T13:40:35.612Z,3.10
2018-08-17T13:43:06.457Z,3.58
2018-08-17T13:45:37.621Z,3.40
2018-08-17T13:48:08.760Z,3.22
2018-08-17T13:50:39.621Z,3.37
2018-08-17T13:53:10.696Z,3.30
2018-08-17T13:55:41.803Z,3.60
2018-08-17T13:58:12.913Z,3.42
2018-08-17T14:00:44.020Z,3.22
2018-08-17T14:03:14.856Z,3.45
2018-08-17T14:05:45.696Z,3.12
2018-08-17T14:08:16.568Z,3.42
2018-08-17T14:10:47.568Z,3.25
2018-08-17T14:13:18.393Z,3.55
2018-08-17T14:15:49.325Z,3.52
2018-08-17T14:18:20.317Z,3.05
2018-08-17T14:20:51.180Z,3.40
2018-08-17T14:23:22.004Z,3.22
2018-08-17T14:25:53.115Z,3.25
2018-08-17T14:28:23.932Z,2.95
2018-08-17T14:30:54.776Z,3.10
2018-08-17T14:33:25.601Z,3.37
2018-08-17T14:35:56.456Z,3.20
2018-08-17T14:38:31.922Z,2.87
2018-08-17T14:41:03.652Z,3.02
2018-08-17T14:43:34.872Z,2.98
2018-08-17T14:46:06.003Z,2.90
2018-08-17T14:48:37.108Z,3.30
2018-08-17T14:51:07.956Z,3.05
2018-08-17T14:53:39.039Z,3.20
2018-08-17T14:56:09.598Z,3.17
2018-08-17T14:58:40.689Z,2.98
2018-08-17T15:01:11.633Z,3.33
2018-08-17T15:03:42.588Z,3.30
2018-08-17T15:06:13.429Z,2.87
2018-08-17T15:08:44.263Z,2.77
2018-08-17T15:11:15.114Z,3.55
2018-08-17T15:13:45.941Z,2.83
2018-08-17T15:16:16.799Z,3.17
2018-08-17T15:18:48.004Z,2.85
2018-08-17T15:21:19.000Z,3.27
2018-08-17T15:23:49.833Z,3.52
2018-08-17T15:26:20.680Z,3.10
2018-08-17T15:28:51.529Z,3.10
2018-08-17T15:31:22.384Z,3.42
2018-08-17T15:33:53.452Z,3.22
2018-08-17T15:36:24.559Z,3.37
2018-08-17T15:38:55.396Z,3.25
2018-08-17T15:41:26.320Z,3.60
2018-08-17T15:43:57.539Z,3.20
2018-08-17T15:46:28.805Z,3.37
2018-08-17T15:48:59.890Z,3.00
2018-08-17T15:51:30.744Z,3.30
2018-08-17T15:54:01.601Z,3.58
2018-08-17T15:56:32.480Z,3.30
2018-08-17T15:59:03.344Z,3.12
2018-08-17T16:01:34.311Z,3.22
2018-08-17T16:04:05.310Z,2.77
2018-08-17T16:06:36.200Z,3.08
2018-08-17T16:09:10.860Z,3.00
2018-08-17T16:11:42.049Z,2.83
2018-08-17T16:14:12.909Z,2.83
2018-08-17T16:16:43.788Z,3.02
2018-08-17T16:19:14.656Z,2.80
2018-08-17T16:21:44.985Z,2.77
2018-08-17T16:24:15.848Z,2.87
2018-08-17T16:26:46.964Z,3.15
2018-08-17T16:29:18.083Z,3.37
2018-08-17T16:31:49.006Z,3.25
2018-08-17T16:34:19.743Z,3.17
2018-08-17T16:36:50.641Z,3.47
2018-08-17T16:39:21.765Z,3.40
2018-08-17T16:41:52.634Z,3.75
2018-08-17T16:44:23.496Z,4.10
2018-08-17T16:46:54.385Z,3.10
2018-08-17T16:49:25.241Z,3.25
2018-08-17T16:51:55.840Z,3.30
2018-08-17T16:54:26.720Z,2.72
2018-08-17T16:56:57.253Z,3.37
2018-08-17T16:59:27.549Z,3.20
2018-08-17T17:01:58.408Z,3.02
2018-08-17T17:04:35.604Z,2.90
2018-08-17T17:07:06.702Z,3.20
2018-08-17T17:09:37.045Z,2.80
2018-08-17T17:12:15.817Z,3.15
2018-08-17T17:14:47.271Z,2.77
2018-08-17T17:17:18.132Z,2.60
2018-08-17T17:19:49.272Z,2.72
2018-08-17T17:22:21.143Z,2.80
2018-08-17T17:24:51.417Z,2.70
2018-08-17T17:27:22.509Z,2.85
2018-08-17T17:29:53.348Z,2.90
2018-08-17T17:32:24.221Z,2.90
2018-08-17T17:34:54.755Z,2.70
2018-08-17T17:37:25.302Z,2.70
2018-08-17T17:39:55.588Z,2.80
2018-08-17T17:42:26.154Z,2.63
2018-08-17T17:44:56.430Z,2.50
2018-08-17T17:47:27.063Z,2.90
2018-08-17T17:49:57.568Z,3.27
2018-08-17T17:52:28.127Z,3.07
2018-08-17T17:54:58.412Z,2.90
2018-08-17T17:57:28.744Z,3.40
2018-08-17T17:59:59.063Z,3.30
2018-08-17T18:02:29.384Z,3.03
2018-08-17T18:04:59.929Z,3.33
2018-08-17T18:07:39.257Z,3.20
2018-08-17T18:10:15.618Z,3.50
2018-08-17T18:12:45.912Z,3.60
2018-08-17T18:15:16.218Z,3.30
2018-08-17T18:17:46.492Z,3.30
2018-08-17T18:20:17.045Z,3.50
2018-08-17T18:22:47.321Z,3.60
2018-08-17T18:25:18.768Z,3.67
2018-08-17T18:27:49.945Z,3.60
2018-08-17T18:30:20.487Z,4.17
2018-08-17T18:32:51.014Z,3.97
2018-08-17T18:35:21.589Z,4.60
2018-08-17T18:37:52.175Z,3.97
2018-08-17T18:40:22.877Z,4.67
2018-08-17T18:42:53.168Z,4.20
2018-08-17T18:45:23.496Z,4.33
2018-08-17T18:47:54.029Z,5.10
2018-08-17T18:50:24.327Z,5.30
2018-08-17T18:52:54.645Z,5.07
2018-08-17T18:55:32.311Z,5.30
2018-08-17T18:58:04.173Z,4.77
2018-08-17T19:06:55.481Z,5.60
2018-08-17T19:09:25.816Z,5.63
2018-08-17T19:11:56.225Z,6.13
2018-08-17T19:14:27.243Z,5.70
2018-08-17T19:16:57.781Z,5.80
2018-08-17T19:19:28.118Z,5.90
2018-08-17T19:21:58.440Z,6.07
2018-08-17T19:24:29.058Z,5.63
2018-08-17T19:26:59.429Z,5.73
2018-08-17T19:29:29.801Z,6.03
2018-08-17T19:32:01.485Z,5.93
2018-08-17T19:34:32.132Z,5.77
2018-08-17T19:37:02.920Z,6.47
2018-08-17T19:39:33.610Z,6.50
2018-08-17T19:42:04.157Z,5.67
2018-08-17T19:44:34.487Z,5.37
2018-08-17T19:47:04.952Z,5.83
2018-08-17T19:49:35.380Z,5.53
2018-08-17T19:52:05.717Z,6.23
2018-08-17T19:54:36.116Z,6.13
2018-08-17T19:57:06.648Z,6.07
2018-08-17T19:59:37.007Z,5.87
2018-08-17T20:02:07.304Z,5.93
2018-08-17T20:04:37.643Z,5.97
2018-08-17T20:07:07.924Z,5.87
2018-08-17T20:09:38.236Z,5.67
2018-08-17T20:12:08.560Z,5.77
2018-08-17T20:14:38.860Z,5.93
2018-08-17T20:17:09.162Z,6.03
2018-08-17T20:19:44.782Z,5.23
2018-08-17T20:22:18.599Z,5.83
2018-08-17T20:24:48.959Z,5.03
2018-08-17T20:27:20.246Z,5.27
2018-08-17T20:29:50.612Z,5.43
2018-08-17T20:32:21.184Z,5.63
2018-08-17T20:34:51.488Z,5.80
2018-08-17T20:37:21.780Z,5.27
2018-08-17T20:39:52.377Z,6.13
2018-08-17T20:42:22.696Z,5.77
2018-08-17T20:44:53.017Z,5.40
2018-08-17T20:47:23.575Z,5.67
2018-08-17T20:49:53.905Z,5.60
2018-08-17T20:52:24.188Z,5.73
2018-08-17T20:54:54.563Z,5.67
2018-08-17T20:57:25.044Z,5.67
2018-08-17T20:59:55.356Z,5.47
2018-08-17T21:02:25.665Z,5.67
2018-08-17T21:04:55.992Z,5.93
2018-08-17T21:07:26.539Z,6.70
2018-08-17T21:09:56.845Z,5.57
2018-08-17T21:12:27.149Z,5.70
2018-08-17T21:14:57.444Z,6.07
2018-08-17T21:17:28.005Z,6.20
2018-08-17T21:19:58.312Z,6.07
2018-08-17T21:22:28.885Z,5.87
2018-08-17T21:24:59.192Z,6.30
2018-08-17T21:27:29.561Z,6.10
2018-08-17T21:30:00.144Z,6.43
2018-08-17T21:32:30.700Z,6.27
2018-08-17T21:35:01.079Z,6.03
2018-08-17T21:37:31.507Z,6.57
2018-08-17T21:40:01.842Z,6.43
2018-08-17T21:42:32.201Z,5.73
2018-08-17T21:45:02.553Z,6.20
2018-08-17T21:47:32.840Z,6.90
2018-08-17T21:50:08.284Z,6.80
2018-08-17T21:52:38.584Z,6.40
2018-08-17T21:55:08.904Z,6.27
2018-08-17T21:57:39.252Z,6.37
2018-08-17T22:00:17.721Z,6.30
2018-08-17T22:02:48.068Z,6.63
2018-08-17T22:05:23.612Z,7.30
2018-08-17T22:07:53.946Z,6.67
2018-08-17T22:10:24.346Z,6.03
2018-08-17T22:12:54.800Z,6.07
2018-08-17T22:15:28.660Z,6.40
2018-08-17T22:17:59.316Z,6.93
2018-08-17T22:20:29.910Z,6.07
2018-08-17T22:23:00.232Z,6.07
2018-08-17T22:25:30.589Z,6.60
2018-08-17T22:28:00.917Z,6.03
2018-08-17T22:30:31.258Z,6.27
2018-08-17T22:33:01.564Z,6.33
2018-08-17T22:35:32.003Z,6.10
2018-08-17T22:38:02.428Z,6.23
2018-08-17T22:40:32.744Z,6.37
2018-08-17T22:43:03.337Z,5.77
2018-08-17T22:45:33.646Z,5.73
2018-08-17T22:48:04.019Z,6.33
2018-08-17T22:50:34.500Z,5.83
2018-08-17T22:53:05.092Z,6.20
2018-08-17T22:55:35.657Z,6.17
2018-08-17T22:58:06.121Z,5.83
2018-08-17T23:00:36.424Z,5.77
2018-08-17T23:03:06.816Z,6.13
2018-08-17T23:05:37.276Z,6.20
2018-08-17T23:08:07.863Z,5.80
2018-08-17T23:10:38.174Z,5.97
2018-08-17T23:13:08.500Z,6.03
2018-08-17T23:15:38.821Z,6.20
2018-08-17T23:18:16.053Z,5.03
2018-08-17T23:20:46.361Z,5.97
2018-08-17T23:23:16.688Z,5.63
2018-08-17T23:25:46.993Z,5.63
2018-08-17T23:28:17.576Z,5.70
2018-08-17T23:30:47.893Z,6.47
2018-08-17T23:33:18.556Z,5.60
2018-08-17T23:35:48.869Z,6.13
2018-08-17T23:38:19.452Z,6.77
2018-08-17T23:40:49.767Z,6.23
2018-08-17T23:43:20.430Z,6.27
2018-08-17T23:45:50.739Z,6.87
2018-08-17T23:48:21.328Z,7.10
2018-08-17T23:50:51.887Z,6.03
2018-08-17T23:53:22.287Z,6.57
2018-08-17T23:55:52.740Z,7.17
2018-08-17T23:58:23.102Z,5.90
